createdAt,value
2023-03-23T15:58:43.534Z,94.54
2023-03-23T16:01:15.687Z,94.79
2023-03-23T16:03:48.029Z,91.86
2023-03-23T16:06:23.879Z,88.99
2023-03-23T16:08:56.457Z,85.58
2023-03-23T16:11:26.106Z,86.83
2023-03-23T16:13:53.774Z,87.28
2023-03-23T16:16:26.260Z,87.00
2023-03-23T16:18:53.128Z,88.73
2023-03-23T16:21:19.825Z,91.37
2023-03-23T16:23:46.550Z,91.77
2023-03-23T16:26:14.582Z,92.97
2023-03-23T16:28:42.203Z,96.26
2023-03-23T16:31:08.833Z,93.38
2023-03-23T16:33:35.533Z,92.28
2023-03-23T16:36:02.259Z,94.43
2023-03-23T16:38:28.889Z,93.88
2023-03-23T16:40:55.753Z,92.63
2023-03-23T16:43:22.640Z,93.16
2023-03-23T16:45:49.379Z,94.15
2023-03-23T16:48:17.082Z,94.30
2023-03-23T16:50:44.972Z,93.62
2023-03-23T16:53:11.794Z,94.82
2023-03-23T16:55:39.180Z,100.00
2023-03-23T16:58:16.292Z,100.00
2023-03-23T17:00:48.065Z,100.00
2023-03-23T17:03:16.504Z,100.00
2023-03-23T17:05:45.045Z,100.00
2023-03-23T17:08:12.312Z,100.00
2023-03-23T17:10:40.738Z,100.00
2023-03-23T17:13:08.028Z,100.00
2023-03-23T17:15:40.904Z,100.00
2023-03-23T17:18:08.028Z,100.00
2023-03-23T17:20:35.898Z,100.00
2023-03-23T17:23:03.038Z,100.00
2023-03-23T17:25:33.320Z,100.00
2023-03-23T17:28:05.888Z,100.00
2023-03-23T17:30:34.735Z,100.00
2023-03-23T17:33:05.139Z,100.00
2023-03-23T17:35:32.453Z,100.00
2023-03-23T17:37:59.905Z,100.00
2023-03-23T17:40:29.813Z,100.00
2023-03-23T17:42:56.793Z,100.00
2023-03-23T17:45:24.149Z,100.00
2023-03-23T17:47:51.063Z,100.00
2023-03-23T17:50:17.749Z,100.00
2023-03-23T17:52:44.304Z,100.00
2023-03-23T17:55:11.198Z,100.00
2023-03-23T17:57:37.813Z,100.00
2023-03-23T18:00:08.605Z,100.00
2023-03-23T18:02:36.964Z,100.00
2023-03-23T18:05:03.852Z,100.00
2023-03-23T18:07:30.281Z,100.00
2023-03-23T18:10:00.265Z,100.00
2023-03-23T18:12:26.793Z,100.00
2023-03-23T19:00:39.660Z,100.00
2023-03-23T19:03:06.977Z,100.00
2023-03-23T19:05:34.963Z,100.00
2023-03-23T19:08:01.756Z,100.00
2023-03-23T19:10:28.448Z,100.00
2023-03-23T19:12:54.933Z,100.00
2023-03-23T19:15:21.508Z,100.00
2023-03-23T19:17:48.026Z,100.00
2023-03-23T19:20:19.736Z,100.00
2023-03-23T19:23:01.138Z,100.00
2023-03-23T19:25:27.707Z,100.00
2023-03-23T19:30:23.644Z,100.00
2023-03-23T19:32:50.097Z,100.00
2023-03-23T19:35:16.780Z,100.00
2023-03-23T19:37:43.418Z,100.00
2023-03-23T19:40:33.792Z,100.00
2023-03-23T19:42:57.487Z,100.00
2023-03-23T19:45:24.011Z,100.00
2023-03-23T19:47:51.022Z,100.00
2023-03-23T19:50:17.581Z,100.00
2023-03-23T19:52:44.780Z,100.00
2023-03-23T19:55:11.656Z,100.00
2023-03-23T19:57:38.163Z,100.00
2023-03-23T20:00:07.628Z,100.00
2023-03-23T20:02:34.196Z,100.00
2023-03-23T20:05:00.839Z,100.00
2023-03-23T20:07:30.007Z,100.00
2023-03-23T20:09:56.520Z,100.00
2023-03-23T20:12:22.963Z,100.00
2023-03-23T20:14:49.556Z,100.00
2023-03-23T21:28:10.709Z,100.00
2023-03-23T21:30:37.484Z,100.00
2023-03-23T21:33:03.912Z,100.00
2023-03-23T21:35:30.394Z,100.00
2023-03-23T21:37:58.090Z,100.00
2023-03-23T21:40:26.197Z,100.00
2023-03-23T21:42:53.212Z,100.00
2023-03-23T21:45:20.980Z,100.00
2023-03-23T21:47:48.387Z,100.00
2023-03-23T21:50:15.992Z,100.00
2023-03-23T21:52:43.532Z,100.00
2023-03-23T21:55:12.447Z,100.00
2023-03-23T21:57:40.581Z,100.00
2023-03-23T22:00:09.342Z,100.00
2023-03-23T22:02:36.199Z,100.00
2023-03-23T22:05:02.707Z,100.00
2023-03-23T22:07:31.093Z,100.00
2023-03-23T22:09:59.074Z,100.00
2023-03-23T22:12:26.119Z,100.00
2023-03-23T22:14:52.573Z,100.00
2023-03-23T22:17:19.030Z,100.00
2023-03-23T22:19:45.635Z,100.00
2023-03-23T22:22:12.196Z,100.00
2023-03-23T22:24:38.631Z,100.00
2023-03-23T22:27:05.262Z,100.00
2023-03-23T22:29:31.972Z,100.00
2023-03-23T22:31:58.467Z,100.00
2023-03-23T22:34:24.956Z,100.00
2023-03-23T22:36:51.567Z,100.00
2023-03-23T22:39:18.050Z,100.00
2023-03-23T22:41:44.763Z,100.00
2023-03-23T22:44:14.718Z,100.00
2023-03-23T22:46:41.540Z,100.00
2023-03-23T22:49:08.065Z,100.00
2023-03-23T22:51:36.794Z,100.00
2023-03-23T22:54:04.497Z,100.00
2023-03-23T22:56:31.767Z,100.00
2023-03-23T22:59:00.101Z,100.00
2023-03-23T23:01:27.618Z,100.00
2023-03-23T23:03:54.152Z,100.00
2023-03-23T23:06:21.290Z,100.00
2023-03-23T23:08:48.764Z,100.00
2023-03-23T23:11:17.332Z,100.00
2023-03-23T23:13:44.375Z,100.00
2023-03-23T23:16:13.086Z,100.00
2023-03-23T23:18:40.655Z,100.00
2023-03-23T23:21:09.852Z,100.00
2023-03-23T23:23:37.442Z,100.00
2023-03-23T23:26:04.723Z,100.00
2023-03-23T23:28:31.733Z,100.00
2023-03-23T23:30:58.586Z,100.00
2023-03-23T23:33:25.425Z,100.00
2023-03-23T23:35:52.060Z,100.00
2023-03-23T23:38:18.688Z,100.00
2023-03-23T23:40:46.407Z,100.00
